sensor_id;sensor_type;location;lat;lon;timestamp;temperature;humidity
23160;DHT22;11748;50.844;4.396;2024-03-29T00:00:35;11.40;99.90
23160;DHT22;11748;50.844;4.396;2024-03-29T00:03:01;11.40;99.90
23160;DHT22;11748;50.844;4.396;2024-03-29T00:05:27;11.50;99.90
23160;DHT22;11748;50.844;4.396;2024-03-29T00:07:52;11.50;99.90
23160;DHT22;11748;50.844;4.396;2024-03-29T00:10:18;11.60;99.90
23160;DHT22;11748;50.844;4.396;2024-03-29T00:12:44;11.60;99.90
23160;DHT22;11748;50.844;4.396;2024-03-29T00:15:10;11.50;99.90
23160;DHT22;11748;50.844;4.396;2024-03-29T00:17:36;11.60;99.90
23160;DHT22;11748;50.844;4.396;2024-03-29T00:20:01;11.60;99.90
23160;DHT22;11748;50.844;4.396;2024-03-29T00:22:28;11.70;99.90
23160;DHT22;11748;50.844;4.396;2024-03-29T00:24:54;11.70;99.90
23160;DHT22;11748;50.844;4.396;2024-03-29T00:27:20;11.70;99.90
23160;DHT22;11748;50.844;4.396;2024-03-29T00:29:47;11.70;99.90
23160;DHT22;11748;50.844;4.396;2024-03-29T00:32:18;11.80;99.90
23160;DHT22;11748;50.844;4.396;2024-03-29T00:34:44;11.70;99.90
23160;DHT22;11748;50.844;4.396;2024-03-29T00:37:11;11.60;99.90
23160;DHT22;11748;50.844;4.396;2024-03-29T00:39:36;11.50;99.90
23160;DHT22;11748;50.844;4.396;2024-03-29T00:42:03;11.60;99.90
23160;DHT22;11748;50.844;4.396;2024-03-29T00:44:31;11.70;99.90
23160;DHT22;11748;50.844;4.396;2024-03-29T00:46:56;11.80;99.90
23160;DHT22;11748;50.844;4.396;2024-03-29T00:49:22;11.80;99.90
23160;DHT22;11748;50.844;4.396;2024-03-29T00:51:48;11.90;99.90
23160;DHT22;11748;50.844;4.396;2024-03-29T00:54:13;11.90;99.90
23160;DHT22;11748;50.844;4.396;2024-03-29T00:56:39;11.90;99.90
23160;DHT22;11748;50.844;4.396;2024-03-29T00:59:05;11.90;99.90
23160;DHT22;11748;50.844;4.396;2024-03-29T01:01:31;12.00;99.90
23160;DHT22;11748;50.844;4.396;2024-03-29T01:03:58;12.00;99.90
23160;DHT22;11748;50.844;4.396;2024-03-29T01:06:24;12.10;99.90
23160;DHT22;11748;50.844;4.396;2024-03-29T01:08:50;12.20;99.90
23160;DHT22;11748;50.844;4.396;2024-03-29T01:11:16;12.20;99.90
23160;DHT22;11748;50.844;4.396;2024-03-29T01:13:42;12.20;99.90
23160;DHT22;11748;50.844;4.396;2024-03-29T01:16:08;12.10;99.90
23160;DHT22;11748;50.844;4.396;2024-03-29T01:18:34;12.10;99.90
23160;DHT22;11748;50.844;4.396;2024-03-29T01:20:59;12.10;99.90
23160;DHT22;11748;50.844;4.396;2024-03-29T01:23:26;12.20;99.90
23160;DHT22;11748;50.844;4.396;2024-03-29T01:25:52;12.30;99.90
23160;DHT22;11748;50.844;4.396;2024-03-29T01:28:19;12.20;99.90
23160;DHT22;11748;50.844;4.396;2024-03-29T01:30:52;12.20;99.90
23160;DHT22;11748;50.844;4.396;2024-03-29T01:33:18;12.10;99.90
23160;DHT22;11748;50.844;4.396;2024-03-29T01:35:43;11.90;99.90
23160;DHT22;11748;50.844;4.396;2024-03-29T01:38:09;11.90;99.90
23160;DHT22;11748;50.844;4.396;2024-03-29T01:40:35;11.80;99.90
23160;DHT22;11748;50.844;4.396;2024-03-29T01:43:01;11.70;99.90
23160;DHT22;11748;50.844;4.396;2024-03-29T01:45:27;11.80;99.90
23160;DHT22;11748;50.844;4.396;2024-03-29T01:47:53;11.60;99.90
23160;DHT22;11748;50.844;4.396;2024-03-29T01:50:20;11.70;99.90
23160;DHT22;11748;50.844;4.396;2024-03-29T01:52:46;11.70;99.90
23160;DHT22;11748;50.844;4.396;2024-03-29T01:55:12;11.70;99.90
23160;DHT22;11748;50.844;4.396;2024-03-29T01:57:39;11.70;99.90
23160;DHT22;11748;50.844;4.396;2024-03-29T02:00:06;11.70;99.90
23160;DHT22;11748;50.844;4.396;2024-03-29T02:02:33;11.60;99.90
23160;DHT22;11748;50.844;4.396;2024-03-29T02:04:59;11.60;99.90
23160;DHT22;11748;50.844;4.396;2024-03-29T02:07:25;11.60;99.90
23160;DHT22;11748;50.844;4.396;2024-03-29T02:09:51;11.40;99.90
23160;DHT22;11748;50.844;4.396;2024-03-29T02:12:17;11.20;99.90
23160;DHT22;11748;50.844;4.396;2024-03-29T02:14:43;11.20;99.90
23160;DHT22;11748;50.844;4.396;2024-03-29T02:17:09;11.20;99.90
23160;DHT22;11748;50.844;4.396;2024-03-29T02:19:35;11.10;99.90
23160;DHT22;11748;50.844;4.396;2024-03-29T02:22:01;11.00;99.90
23160;DHT22;11748;50.844;4.396;2024-03-29T02:24:31;11.10;99.90
23160;DHT22;11748;50.844;4.396;2024-03-29T02:26:57;11.10;99.90
23160;DHT22;11748;50.844;4.396;2024-03-29T02:29:23;11.10;99.90
23160;DHT22;11748;50.844;4.396;2024-03-29T02:31:49;11.10;99.90
23160;DHT22;11748;50.844;4.396;2024-03-29T02:34:16;11.00;99.90
23160;DHT22;11748;50.844;4.396;2024-03-29T02:36:43;11.00;99.90
23160;DHT22;11748;50.844;4.396;2024-03-29T02:39:11;11.00;99.90
23160;DHT22;11748;50.844;4.396;2024-03-29T02:41:37;11.00;99.90
23160;DHT22;11748;50.844;4.396;2024-03-29T02:44:03;11.00;99.90
23160;DHT22;11748;50.844;4.396;2024-03-29T02:46:29;11.00;99.90
23160;DHT22;11748;50.844;4.396;2024-03-29T02:48:55;11.00;99.90
23160;DHT22;11748;50.844;4.396;2024-03-29T02:51:20;11.00;99.90
23160;DHT22;11748;50.844;4.396;2024-03-29T02:53:46;10.80;99.90
23160;DHT22;11748;50.844;4.396;2024-03-29T02:56:13;10.70;99.90
23160;DHT22;11748;50.844;4.396;2024-03-29T02:58:44;10.70;99.90
23160;DHT22;11748;50.844;4.396;2024-03-29T03:01:09;10.80;99.90
23160;DHT22;11748;50.844;4.396;2024-03-29T03:03:36;10.80;99.90
23160;DHT22;11748;50.844;4.396;2024-03-29T03:06:02;10.80;99.90
23160;DHT22;11748;50.844;4.396;2024-03-29T03:08:29;10.80;99.90
23160;DHT22;11748;50.844;4.396;2024-03-29T03:11:15;10.80;99.90
23160;DHT22;11748;50.844;4.396;2024-03-29T03:13:43;10.70;99.90
23160;DHT22;11748;50.844;4.396;2024-03-29T03:16:09;10.70;99.90
23160;DHT22;11748;50.844;4.396;2024-03-29T03:18:35;10.70;99.90
23160;DHT22;11748;50.844;4.396;2024-03-29T03:21:02;10.50;99.90
23160;DHT22;11748;50.844;4.396;2024-03-29T03:23:28;10.40;99.90
23160;DHT22;11748;50.844;4.396;2024-03-29T03:26:02;10.40;99.90
23160;DHT22;11748;50.844;4.396;2024-03-29T03:28:30;10.40;99.90
23160;DHT22;11748;50.844;4.396;2024-03-29T03:30:56;10.40;99.90
23160;DHT22;11748;50.844;4.396;2024-03-29T03:33:21;10.40;99.90
23160;DHT22;11748;50.844;4.396;2024-03-29T03:35:47;10.40;99.90
23160;DHT22;11748;50.844;4.396;2024-03-29T03:38:14;10.40;99.90
23160;DHT22;11748;50.844;4.396;2024-03-29T03:40:40;10.40;99.90
23160;DHT22;11748;50.844;4.396;2024-03-29T03:43:06;10.40;99.90
23160;DHT22;11748;50.844;4.396;2024-03-29T03:45:39;10.50;99.90
23160;DHT22;11748;50.844;4.396;2024-03-29T03:48:10;10.40;99.90
23160;DHT22;11748;50.844;4.396;2024-03-29T03:50:37;10.40;99.90
23160;DHT22;11748;50.844;4.396;2024-03-29T03:53:03;10.40;99.90
23160;DHT22;11748;50.844;4.396;2024-03-29T03:55:29;10.30;99.90
23160;DHT22;11748;50.844;4.396;2024-03-29T03:57:55;10.40;99.90
23160;DHT22;11748;50.844;4.396;2024-03-29T04:00:21;10.40;99.90
23160;DHT22;11748;50.844;4.396;2024-03-29T04:02:51;10.20;99.90
23160;DHT22;11748;50.844;4.396;2024-03-29T04:05:20;10.10;99.90
23160;DHT22;11748;50.844;4.396;2024-03-29T04:07:46;10.20;99.90
23160;DHT22;11748;50.844;4.396;2024-03-29T04:10:13;10.30;99.90
23160;DHT22;11748;50.844;4.396;2024-03-29T04:12:38;10.30;99.90
23160;DHT22;11748;50.844;4.396;2024-03-29T04:15:05;10.20;99.90
23160;DHT22;11748;50.844;4.396;2024-03-29T04:17:31;10.10;99.90
23160;DHT22;11748;50.844;4.396;2024-03-29T04:20:00;10.10;99.90
23160;DHT22;11748;50.844;4.396;2024-03-29T04:22:29;10.10;99.90
23160;DHT22;11748;50.844;4.396;2024-03-29T04:24:55;10.10;99.90
23160;DHT22;11748;50.844;4.396;2024-03-29T04:27:20;10.20;99.90
23160;DHT22;11748;50.844;4.396;2024-03-29T04:29:46;10.00;99.90
23160;DHT22;11748;50.844;4.396;2024-03-29T04:32:12;10.10;99.90
23160;DHT22;11748;50.844;4.396;2024-03-29T04:34:38;10.10;99.90
23160;DHT22;11748;50.844;4.396;2024-03-29T04:37:04;10.20;99.90
23160;DHT22;11748;50.844;4.396;2024-03-29T04:39:29;10.30;99.90
23160;DHT22;11748;50.844;4.396;2024-03-29T04:41:55;10.30;99.90
23160;DHT22;11748;50.844;4.396;2024-03-29T04:44:27;10.30;99.90
23160;DHT22;11748;50.844;4.396;2024-03-29T04:46:53;10.20;99.90
23160;DHT22;11748;50.844;4.396;2024-03-29T04:49:22;10.10;99.90
23160;DHT22;11748;50.844;4.396;2024-03-29T04:51:54;10.10;99.90
23160;DHT22;11748;50.844;4.396;2024-03-29T04:54:20;10.10;99.90
23160;DHT22;11748;50.844;4.396;2024-03-29T04:56:45;10.10;99.90
23160;DHT22;11748;50.844;4.396;2024-03-29T04:59:11;10.20;99.90
23160;DHT22;11748;50.844;4.396;2024-03-29T05:01:37;10.30;99.90
23160;DHT22;11748;50.844;4.396;2024-03-29T05:04:02;10.30;99.90
23160;DHT22;11748;50.844;4.396;2024-03-29T05:06:29;10.40;99.90
23160;DHT22;11748;50.844;4.396;2024-03-29T05:08:56;10.40;99.90
23160;DHT22;11748;50.844;4.396;2024-03-29T05:11:22;10.40;99.90
23160;DHT22;11748;50.844;4.396;2024-03-29T05:13:47;10.50;99.90
23160;DHT22;11748;50.844;4.396;2024-03-29T05:16:13;10.50;99.90
23160;DHT22;11748;50.844;4.396;2024-03-29T05:18:40;10.50;99.90
23160;DHT22;11748;50.844;4.396;2024-03-29T05:21:05;10.50;99.90
23160;DHT22;11748;50.844;4.396;2024-03-29T05:23:31;10.60;99.90
23160;DHT22;11748;50.844;4.396;2024-03-29T05:25:58;10.60;99.90
23160;DHT22;11748;50.844;4.396;2024-03-29T05:28:23;10.50;99.90
23160;DHT22;11748;50.844;4.396;2024-03-29T05:30:49;10.50;99.90
23160;DHT22;11748;50.844;4.396;2024-03-29T05:33:15;10.50;99.90
23160;DHT22;11748;50.844;4.396;2024-03-29T05:35:41;10.50;99.90
23160;DHT22;11748;50.844;4.396;2024-03-29T05:38:07;10.50;99.90
23160;DHT22;11748;50.844;4.396;2024-03-29T05:41:04;10.50;99.90
23160;DHT22;11748;50.844;4.396;2024-03-29T05:43:31;10.40;99.90
23160;DHT22;11748;50.844;4.396;2024-03-29T05:45:57;10.40;99.90
23160;DHT22;11748;50.844;4.396;2024-03-29T05:48:23;10.40;99.90
23160;DHT22;11748;50.844;4.396;2024-03-29T05:50:49;10.30;99.90
23160;DHT22;11748;50.844;4.396;2024-03-29T05:53:15;10.40;99.90
23160;DHT22;11748;50.844;4.396;2024-03-29T05:55:40;10.40;99.90
23160;DHT22;11748;50.844;4.396;2024-03-29T05:58:06;10.50;99.90
23160;DHT22;11748;50.844;4.396;2024-03-29T06:00:33;10.50;99.90
23160;DHT22;11748;50.844;4.396;2024-03-29T06:03:00;10.60;99.90
23160;DHT22;11748;50.844;4.396;2024-03-29T06:05:29;10.70;99.90
23160;DHT22;11748;50.844;4.396;2024-03-29T06:07:55;10.70;99.90
23160;DHT22;11748;50.844;4.396;2024-03-29T06:10:21;10.70;99.90
23160;DHT22;11748;50.844;4.396;2024-03-29T06:12:46;10.80;99.90
23160;DHT22;11748;50.844;4.396;2024-03-29T06:15:12;10.70;99.90
23160;DHT22;11748;50.844;4.396;2024-03-29T06:17:57;10.80;99.90
23160;DHT22;11748;50.844;4.396;2024-03-29T06:20:24;10.90;99.90
23160;DHT22;11748;50.844;4.396;2024-03-29T06:22:49;11.00;99.90
23160;DHT22;11748;50.844;4.396;2024-03-29T06:25:15;10.80;99.90
23160;DHT22;11748;50.844;4.396;2024-03-29T06:27:42;10.90;99.90
23160;DHT22;11748;50.844;4.396;2024-03-29T06:30:14;10.80;99.90
23160;DHT22;11748;50.844;4.396;2024-03-29T06:32:41;10.80;99.90
23160;DHT22;11748;50.844;4.396;2024-03-29T06:35:07;10.80;99.90
23160;DHT22;11748;50.844;4.396;2024-03-29T06:37:33;10.90;99.90
23160;DHT22;11748;50.844;4.396;2024-03-29T06:39:58;11.00;99.90
23160;DHT22;11748;50.844;4.396;2024-03-29T06:42:24;11.10;99.90
23160;DHT22;11748;50.844;4.396;2024-03-29T06:44:50;11.20;99.90
23160;DHT22;11748;50.844;4.396;2024-03-29T06:47:18;11.00;99.90
23160;DHT22;11748;50.844;4.396;2024-03-29T06:49:44;10.90;99.90
23160;DHT22;11748;50.844;4.396;2024-03-29T06:52:09;10.80;99.90
23160;DHT22;11748;50.844;4.396;2024-03-29T06:54:35;11.00;99.90
23160;DHT22;11748;50.844;4.396;2024-03-29T06:57:01;11.00;99.90
23160;DHT22;11748;50.844;4.396;2024-03-29T06:59:28;11.10;99.90
23160;DHT22;11748;50.844;4.396;2024-03-29T07:01:54;11.40;99.90
23160;DHT22;11748;50.844;4.396;2024-03-29T07:04:24;11.60;99.90
23160;DHT22;11748;50.844;4.396;2024-03-29T07:06:51;11.60;99.90
23160;DHT22;11748;50.844;4.396;2024-03-29T07:09:21;11.70;99.90
23160;DHT22;11748;50.844;4.396;2024-03-29T07:11:49;11.70;99.90
23160;DHT22;11748;50.844;4.396;2024-03-29T07:14:16;11.60;99.90
23160;DHT22;11748;50.844;4.396;2024-03-29T07:16:43;11.50;99.90
23160;DHT22;11748;50.844;4.396;2024-03-29T07:19:09;11.50;99.90
23160;DHT22;11748;50.844;4.396;2024-03-29T07:21:44;11.40;99.90
23160;DHT22;11748;50.844;4.396;2024-03-29T07:24:10;11.50;99.90
23160;DHT22;11748;50.844;4.396;2024-03-29T07:26:36;11.50;99.90
23160;DHT22;11748;50.844;4.396;2024-03-29T07:29:02;11.50;99.90
23160;DHT22;11748;50.844;4.396;2024-03-29T07:31:31;11.50;99.90
23160;DHT22;11748;50.844;4.396;2024-03-29T07:33:56;11.50;99.90
23160;DHT22;11748;50.844;4.396;2024-03-29T07:36:22;11.50;99.90
23160;DHT22;11748;50.844;4.396;2024-03-29T07:38:50;11.60;99.90
23160;DHT22;11748;50.844;4.396;2024-03-29T07:41:16;11.60;99.90
23160;DHT22;11748;50.844;4.396;2024-03-29T07:43:55;11.60;99.90
23160;DHT22;11748;50.844;4.396;2024-03-29T07:46:34;11.70;99.90
23160;DHT22;11748;50.844;4.396;2024-03-29T07:49:01;11.70;99.90
23160;DHT22;11748;50.844;4.396;2024-03-29T07:51:26;11.80;99.90
23160;DHT22;11748;50.844;4.396;2024-03-29T07:53:53;11.80;99.90
23160;DHT22;11748;50.844;4.396;2024-03-29T07:56:20;11.80;99.90
23160;DHT22;11748;50.844;4.396;2024-03-29T07:58:50;11.50;99.90
23160;DHT22;11748;50.844;4.396;2024-03-29T08:01:25;11.60;99.90
23160;DHT22;11748;50.844;4.396;2024-03-29T08:03:51;11.80;99.90
23160;DHT22;11748;50.844;4.396;2024-03-29T08:06:19;11.90;99.90
23160;DHT22;11748;50.844;4.396;2024-03-29T08:08:45;11.90;99.90
23160;DHT22;11748;50.844;4.396;2024-03-29T08:11:11;12.00;99.90
23160;DHT22;11748;50.844;4.396;2024-03-29T08:13:38;11.70;99.90
23160;DHT22;11748;50.844;4.396;2024-03-29T08:16:05;11.90;99.90
23160;DHT22;11748;50.844;4.396;2024-03-29T08:18:32;12.00;99.90
23160;DHT22;11748;50.844;4.396;2024-03-29T08:20:59;12.00;99.90
23160;DHT22;11748;50.844;4.396;2024-03-29T08:23:25;12.00;99.90
23160;DHT22;11748;50.844;4.396;2024-03-29T08:25:51;12.10;99.90
23160;DHT22;11748;50.844;4.396;2024-03-29T08:28:17;12.30;99.90
23160;DHT22;11748;50.844;4.396;2024-03-29T08:30:44;12.40;99.90
23160;DHT22;11748;50.844;4.396;2024-03-29T08:33:09;12.40;99.90
23160;DHT22;11748;50.844;4.396;2024-03-29T08:35:35;12.30;99.90
23160;DHT22;11748;50.844;4.396;2024-03-29T08:38:01;12.50;99.90
23160;DHT22;11748;50.844;4.396;2024-03-29T08:40:28;12.50;99.90
23160;DHT22;11748;50.844;4.396;2024-03-29T08:42:57;12.40;99.90
23160;DHT22;11748;50.844;4.396;2024-03-29T08:45:23;12.40;99.90
23160;DHT22;11748;50.844;4.396;2024-03-29T08:47:49;12.20;99.90
23160;DHT22;11748;50.844;4.396;2024-03-29T08:50:15;12.20;99.90
23160;DHT22;11748;50.844;4.396;2024-03-29T08:52:41;12.40;99.90
23160;DHT22;11748;50.844;4.396;2024-03-29T08:55:07;12.50;99.90
23160;DHT22;11748;50.844;4.396;2024-03-29T08:57:33;12.50;99.90
23160;DHT22;11748;50.844;4.396;2024-03-29T08:59:59;12.50;99.90
23160;DHT22;11748;50.844;4.396;2024-03-29T09:02:24;12.60;99.90
23160;DHT22;11748;50.844;4.396;2024-03-29T09:04:50;12.80;99.90
23160;DHT22;11748;50.844;4.396;2024-03-29T09:07:16;12.90;99.90
23160;DHT22;11748;50.844;4.396;2024-03-29T09:09:41;13.10;99.90
23160;DHT22;11748;50.844;4.396;2024-03-29T09:12:08;13.30;99.90
23160;DHT22;11748;50.844;4.396;2024-03-29T09:14:34;13.70;99.90
23160;DHT22;11748;50.844;4.396;2024-03-29T09:17:01;13.70;99.90
23160;DHT22;11748;50.844;4.396;2024-03-29T09:19:31;13.90;99.90
23160;DHT22;11748;50.844;4.396;2024-03-29T09:21:58;14.10;99.90
23160;DHT22;11748;50.844;4.396;2024-03-29T09:24:23;14.10;99.90
23160;DHT22;11748;50.844;4.396;2024-03-29T09:26:51;14.30;99.90
23160;DHT22;11748;50.844;4.396;2024-03-29T09:29:17;14.10;99.90
23160;DHT22;11748;50.844;4.396;2024-03-29T09:31:45;14.10;99.90
23160;DHT22;11748;50.844;4.396;2024-03-29T09:34:12;14.10;99.90
23160;DHT22;11748;50.844;4.396;2024-03-29T09:36:38;14.10;99.90
23160;DHT22;11748;50.844;4.396;2024-03-29T09:39:03;14.10;99.90
23160;DHT22;11748;50.844;4.396;2024-03-29T09:41:34;13.30;99.90
23160;DHT22;11748;50.844;4.396;2024-03-29T09:44:05;13.70;99.90
23160;DHT22;11748;50.844;4.396;2024-03-29T09:46:33;13.90;99.90
23160;DHT22;11748;50.844;4.396;2024-03-29T09:48:59;14.20;99.90
23160;DHT22;11748;50.844;4.396;2024-03-29T09:51:29;14.10;99.90
23160;DHT22;11748;50.844;4.396;2024-03-29T09:53:57;14.10;99.90
23160;DHT22;11748;50.844;4.396;2024-03-29T09:56:26;14.10;99.90
23160;DHT22;11748;50.844;4.396;2024-03-29T09:58:52;13.80;99.90
23160;DHT22;11748;50.844;4.396;2024-03-29T10:01:18;13.90;99.90
23160;DHT22;11748;50.844;4.396;2024-03-29T10:03:48;13.70;99.90
23160;DHT22;11748;50.844;4.396;2024-03-29T10:06:14;13.90;99.90
23160;DHT22;11748;50.844;4.396;2024-03-29T10:08:40;13.50;99.90
23160;DHT22;11748;50.844;4.396;2024-03-29T10:11:06;13.40;99.90
23160;DHT22;11748;50.844;4.396;2024-03-29T10:13:32;13.30;99.90
23160;DHT22;11748;50.844;4.396;2024-03-29T10:16:00;13.60;99.90
23160;DHT22;11748;50.844;4.396;2024-03-29T10:18:29;13.80;99.90
23160;DHT22;11748;50.844;4.396;2024-03-29T10:21:02;13.80;99.90
23160;DHT22;11748;50.844;4.396;2024-03-29T10:23:29;14.20;99.90
23160;DHT22;11748;50.844;4.396;2024-03-29T10:25:55;14.40;99.90
23160;DHT22;11748;50.844;4.396;2024-03-29T10:28:21;14.80;99.90
23160;DHT22;11748;50.844;4.396;2024-03-29T10:30:47;15.20;99.90
23160;DHT22;11748;50.844;4.396;2024-03-29T10:33:13;15.30;99.90
23160;DHT22;11748;50.844;4.396;2024-03-29T10:35:45;15.50;99.90
23160;DHT22;11748;50.844;4.396;2024-03-29T10:38:11;15.50;99.90
23160;DHT22;11748;50.844;4.396;2024-03-29T10:40:41;15.00;99.90
23160;DHT22;11748;50.844;4.396;2024-03-29T10:43:10;15.20;99.90
23160;DHT22;11748;50.844;4.396;2024-03-29T10:45:42;15.30;99.90
23160;DHT22;11748;50.844;4.396;2024-03-29T10:48:09;15.30;99.90
23160;DHT22;11748;50.844;4.396;2024-03-29T10:50:36;15.50;99.90
23160;DHT22;11748;50.844;4.396;2024-03-29T10:53:03;15.50;99.90
23160;DHT22;11748;50.844;4.396;2024-03-29T10:55:35;14.90;99.90
23160;DHT22;11748;50.844;4.396;2024-03-29T10:58:02;14.70;99.90
23160;DHT22;11748;50.844;4.396;2024-03-29T11:00:29;14.30;99.90
23160;DHT22;11748;50.844;4.396;2024-03-29T11:05:48;13.70;99.90
23160;DHT22;11748;50.844;4.396;2024-03-29T11:08:26;13.60;99.90
23160;DHT22;11748;50.844;4.396;2024-03-29T11:10:54;13.60;99.90
23160;DHT22;11748;50.844;4.396;2024-03-29T11:16:11;13.60;99.90
23160;DHT22;11748;50.844;4.396;2024-03-29T11:18:37;13.60;99.90
23160;DHT22;11748;50.844;4.396;2024-03-29T11:21:05;13.70;99.90
23160;DHT22;11748;50.844;4.396;2024-03-29T11:23:35;14.00;99.90
23160;DHT22;11748;50.844;4.396;2024-03-29T11:26:01;14.50;99.90
23160;DHT22;11748;50.844;4.396;2024-03-29T11:28:32;14.90;99.90
23160;DHT22;11748;50.844;4.396;2024-03-29T11:31:06;14.80;99.90
23160;DHT22;11748;50.844;4.396;2024-03-29T11:36:21;14.80;99.90
23160;DHT22;11748;50.844;4.396;2024-03-29T11:38:52;14.90;99.90
23160;DHT22;11748;50.844;4.396;2024-03-29T11:41:22;14.80;99.90
23160;DHT22;11748;50.844;4.396;2024-03-29T11:43:56;15.40;99.90
23160;DHT22;11748;50.844;4.396;2024-03-29T11:46:23;15.50;99.90
23160;DHT22;11748;50.844;4.396;2024-03-29T11:48:49;15.60;99.90
23160;DHT22;11748;50.844;4.396;2024-03-29T11:51:18;16.00;99.90
23160;DHT22;11748;50.844;4.396;2024-03-29T11:53:46;16.20;99.90
23160;DHT22;11748;50.844;4.396;2024-03-29T11:56:12;16.40;99.90
23160;DHT22;11748;50.844;4.396;2024-03-29T11:58:39;15.70;99.90
23160;DHT22;11748;50.844;4.396;2024-03-29T12:01:05;15.20;99.90
23160;DHT22;11748;50.844;4.396;2024-03-29T12:03:32;15.20;99.90
23160;DHT22;11748;50.844;4.396;2024-03-29T12:05:59;15.60;99.90
23160;DHT22;11748;50.844;4.396;2024-03-29T12:08:32;15.80;99.90
23160;DHT22;11748;50.844;4.396;2024-03-29T12:10:59;15.60;99.90
23160;DHT22;11748;50.844;4.396;2024-03-29T12:13:25;15.90;99.90
23160;DHT22;11748;50.844;4.396;2024-03-29T12:15:53;16.10;99.90
23160;DHT22;11748;50.844;4.396;2024-03-29T12:18:20;16.40;99.90
23160;DHT22;11748;50.844;4.396;2024-03-29T12:20:48;16.00;99.90
23160;DHT22;11748;50.844;4.396;2024-03-29T12:23:19;15.90;99.90
23160;DHT22;11748;50.844;4.396;2024-03-29T12:25:49;15.70;99.90
23160;DHT22;11748;50.844;4.396;2024-03-29T12:28:15;15.70;99.90
23160;DHT22;11748;50.844;4.396;2024-03-29T12:30:47;16.10;99.90
23160;DHT22;11748;50.844;4.396;2024-03-29T12:33:20;16.50;99.90
23160;DHT22;11748;50.844;4.396;2024-03-29T12:35:51;16.90;99.90
23160;DHT22;11748;50.844;4.396;2024-03-29T12:38:19;17.10;99.90
23160;DHT22;11748;50.844;4.396;2024-03-29T12:40:46;17.20;99.90
23160;DHT22;11748;50.844;4.396;2024-03-29T12:43:20;16.90;99.90
23160;DHT22;11748;50.844;4.396;2024-03-29T12:45:46;16.80;99.90
23160;DHT22;11748;50.844;4.396;2024-03-29T12:48:18;17.10;99.90
23160;DHT22;11748;50.844;4.396;2024-03-29T12:50:46;17.00;99.90
23160;DHT22;11748;50.844;4.396;2024-03-29T12:53:13;17.00;99.90
23160;DHT22;11748;50.844;4.396;2024-03-29T12:55:40;16.60;99.90
23160;DHT22;11748;50.844;4.396;2024-03-29T12:58:09;16.50;99.90
23160;DHT22;11748;50.844;4.396;2024-03-29T13:00:37;16.70;99.90
23160;DHT22;11748;50.844;4.396;2024-03-29T13:03:03;16.60;99.90
23160;DHT22;11748;50.844;4.396;2024-03-29T13:05:30;16.50;99.90
23160;DHT22;11748;50.844;4.396;2024-03-29T13:08:02;16.40;99.90
23160;DHT22;11748;50.844;4.396;2024-03-29T13:10:29;16.80;99.90
23160;DHT22;11748;50.844;4.396;2024-03-29T13:12:56;16.90;99.90
23160;DHT22;11748;50.844;4.396;2024-03-29T13:15:23;16.90;99.90
23160;DHT22;11748;50.844;4.396;2024-03-29T13:17:53;17.10;99.90
23160;DHT22;11748;50.844;4.396;2024-03-29T13:20:19;16.80;99.90
23160;DHT22;11748;50.844;4.396;2024-03-29T13:22:46;16.20;99.90
23160;DHT22;11748;50.844;4.396;2024-03-29T13:25:13;16.10;99.90
23160;DHT22;11748;50.844;4.396;2024-03-29T13:27:40;16.10;99.90
23160;DHT22;11748;50.844;4.396;2024-03-29T13:30:07;16.00;99.90
23160;DHT22;11748;50.844;4.396;2024-03-29T13:32:39;15.80;99.90
23160;DHT22;11748;50.844;4.396;2024-03-29T13:35:08;16.10;99.90
23160;DHT22;11748;50.844;4.396;2024-03-29T13:37:45;16.50;99.90
23160;DHT22;11748;50.844;4.396;2024-03-29T13:40:15;16.30;99.90
23160;DHT22;11748;50.844;4.396;2024-03-29T13:42:41;16.70;99.90
23160;DHT22;11748;50.844;4.396;2024-03-29T13:45:08;16.70;99.90
23160;DHT22;11748;50.844;4.396;2024-03-29T13:47:37;16.60;99.90
23160;DHT22;11748;50.844;4.396;2024-03-29T13:50:03;16.40;99.90
23160;DHT22;11748;50.844;4.396;2024-03-29T13:52:29;16.00;99.90
23160;DHT22;11748;50.844;4.396;2024-03-29T13:54:56;15.80;99.90
23160;DHT22;11748;50.844;4.396;2024-03-29T13:57:21;15.80;99.90
23160;DHT22;11748;50.844;4.396;2024-03-29T13:59:47;16.00;99.90
23160;DHT22;11748;50.844;4.396;2024-03-29T14:02:15;16.40;99.90
23160;DHT22;11748;50.844;4.396;2024-03-29T14:04:42;16.70;99.90
23160;DHT22;11748;50.844;4.396;2024-03-29T14:07:08;16.60;99.90
23160;DHT22;11748;50.844;4.396;2024-03-29T14:09:37;16.40;99.90
23160;DHT22;11748;50.844;4.396;2024-03-29T14:12:03;16.20;99.90
23160;DHT22;11748;50.844;4.396;2024-03-29T14:14:29;15.90;99.90
23160;DHT22;11748;50.844;4.396;2024-03-29T14:16:55;16.00;99.90
23160;DHT22;11748;50.844;4.396;2024-03-29T14:19:21;15.80;99.90
23160;DHT22;11748;50.844;4.396;2024-03-29T14:21:47;15.90;99.90
23160;DHT22;11748;50.844;4.396;2024-03-29T14:24:12;16.30;99.90
23160;DHT22;11748;50.844;4.396;2024-03-29T14:26:38;16.30;99.90
23160;DHT22;11748;50.844;4.396;2024-03-29T14:29:04;16.50;99.90
23160;DHT22;11748;50.844;4.396;2024-03-29T14:31:34;16.20;99.90
23160;DHT22;11748;50.844;4.396;2024-03-29T14:34:00;16.40;99.90
23160;DHT22;11748;50.844;4.396;2024-03-29T14:36:26;16.50;99.90
23160;DHT22;11748;50.844;4.396;2024-03-29T14:38:51;16.70;99.90
23160;DHT22;11748;50.844;4.396;2024-03-29T14:41:18;16.80;99.90
23160;DHT22;11748;50.844;4.396;2024-03-29T14:43:44;16.60;99.90
23160;DHT22;11748;50.844;4.396;2024-03-29T14:46:12;16.80;99.90
23160;DHT22;11748;50.844;4.396;2024-03-29T14:48:37;17.20;99.90
23160;DHT22;11748;50.844;4.396;2024-03-29T14:51:03;17.50;99.90
23160;DHT22;11748;50.844;4.396;2024-03-29T14:53:31;17.00;99.90
23160;DHT22;11748;50.844;4.396;2024-03-29T14:55:57;16.60;99.90
23160;DHT22;11748;50.844;4.396;2024-03-29T14:58:24;16.90;99.90
23160;DHT22;11748;50.844;4.396;2024-03-29T15:00:50;16.80;99.90
23160;DHT22;11748;50.844;4.396;2024-03-29T15:03:17;17.00;99.90
23160;DHT22;11748;50.844;4.396;2024-03-29T15:05:42;17.30;99.90
23160;DHT22;11748;50.844;4.396;2024-03-29T15:08:08;17.30;99.90
23160;DHT22;11748;50.844;4.396;2024-03-29T15:10:42;17.10;99.90
23160;DHT22;11748;50.844;4.396;2024-03-29T15:13:08;17.10;99.90
23160;DHT22;11748;50.844;4.396;2024-03-29T15:15:34;17.20;99.90
23160;DHT22;11748;50.844;4.396;2024-03-29T15:18:03;17.30;99.90
23160;DHT22;11748;50.844;4.396;2024-03-29T15:20:31;17.30;99.90
23160;DHT22;11748;50.844;4.396;2024-03-29T15:22:57;17.30;99.90
23160;DHT22;11748;50.844;4.396;2024-03-29T15:25:24;17.10;99.90
23160;DHT22;11748;50.844;4.396;2024-03-29T15:27:51;17.00;99.90
23160;DHT22;11748;50.844;4.396;2024-03-29T15:30:35;17.10;99.90
23160;DHT22;11748;50.844;4.396;2024-03-29T15:33:06;17.30;99.90
23160;DHT22;11748;50.844;4.396;2024-03-29T15:35:38;17.40;99.90
23160;DHT22;11748;50.844;4.396;2024-03-29T15:38:05;17.50;99.90